sensor_id;sensor_type;location;lat;lon;timestamp;temperature;humidity
35111;DHT22;21290;50.158;8.658;2023-08-30T00:02:26;13.30;99.90
35111;DHT22;21290;50.158;8.658;2023-08-30T00:04:58;13.30;99.90
35111;DHT22;21290;50.158;8.658;2023-08-30T00:07:26;13.30;99.90
35111;DHT22;21290;50.158;8.658;2023-08-30T00:09:53;13.30;99.90
35111;DHT22;21290;50.158;8.658;2023-08-30T00:12:20;13.30;99.90
35111;DHT22;21290;50.158;8.658;2023-08-30T00:14:48;13.30;99.90
35111;DHT22;21290;50.158;8.658;2023-08-30T00:17:15;13.30;99.90
35111;DHT22;21290;50.158;8.658;2023-08-30T00:19:44;13.30;99.90
35111;DHT22;21290;50.158;8.658;2023-08-30T00:22:11;13.30;99.90
35111;DHT22;21290;50.158;8.658;2023-08-30T00:24:39;13.30;99.90
35111;DHT22;21290;50.158;8.658;2023-08-30T00:27:06;13.30;99.90
35111;DHT22;21290;50.158;8.658;2023-08-30T00:29:33;13.40;99.90
35111;DHT22;21290;50.158;8.658;2023-08-30T00:31:59;13.40;99.90
35111;DHT22;21290;50.158;8.658;2023-08-30T00:34:26;13.30;99.90
35111;DHT22;21290;50.158;8.658;2023-08-30T00:36:54;13.40;99.90
35111;DHT22;21290;50.158;8.658;2023-08-30T00:39:21;13.40;99.90
35111;DHT22;21290;50.158;8.658;2023-08-30T00:41:48;13.40;99.90
35111;DHT22;21290;50.158;8.658;2023-08-30T00:44:15;13.40;99.90
35111;DHT22;21290;50.158;8.658;2023-08-30T00:46:42;13.50;99.90
35111;DHT22;21290;50.158;8.658;2023-08-30T00:49:09;13.50;99.90
35111;DHT22;21290;50.158;8.658;2023-08-30T00:51:37;13.50;99.90
35111;DHT22;21290;50.158;8.658;2023-08-30T00:54:03;13.50;99.90
35111;DHT22;21290;50.158;8.658;2023-08-30T00:56:32;13.50;99.90
35111;DHT22;21290;50.158;8.658;2023-08-30T00:58:59;13.50;99.90
35111;DHT22;21290;50.158;8.658;2023-08-30T01:01:26;13.50;99.90
35111;DHT22;21290;50.158;8.658;2023-08-30T01:03:53;13.40;99.90
35111;DHT22;21290;50.158;8.658;2023-08-30T01:06:20;13.40;99.90
35111;DHT22;21290;50.158;8.658;2023-08-30T01:08:47;13.40;99.90
35111;DHT22;21290;50.158;8.658;2023-08-30T01:11:32;13.40;99.90
35111;DHT22;21290;50.158;8.658;2023-08-30T01:14:08;13.40;99.90
35111;DHT22;21290;50.158;8.658;2023-08-30T01:16:35;13.40;99.90
35111;DHT22;21290;50.158;8.658;2023-08-30T01:19:17;13.40;99.90
35111;DHT22;21290;50.158;8.658;2023-08-30T01:21:56;13.40;99.90
35111;DHT22;21290;50.158;8.658;2023-08-30T01:24:45;13.30;99.90
35111;DHT22;21290;50.158;8.658;2023-08-30T01:27:14;13.30;99.90
35111;DHT22;21290;50.158;8.658;2023-08-30T01:29:44;13.30;99.90
35111;DHT22;21290;50.158;8.658;2023-08-30T01:32:11;13.30;99.90
35111;DHT22;21290;50.158;8.658;2023-08-30T01:34:40;13.30;99.90
35111;DHT22;21290;50.158;8.658;2023-08-30T01:37:09;13.30;99.90
35111;DHT22;21290;50.158;8.658;2023-08-30T01:39:40;13.30;99.90
35111;DHT22;21290;50.158;8.658;2023-08-30T01:42:09;13.30;99.90
35111;DHT22;21290;50.158;8.658;2023-08-30T01:44:36;13.30;99.90
35111;DHT22;21290;50.158;8.658;2023-08-30T01:47:05;13.30;99.90
35111;DHT22;21290;50.158;8.658;2023-08-30T01:49:33;13.30;99.90
35111;DHT22;21290;50.158;8.658;2023-08-30T01:52:01;13.30;99.90
35111;DHT22;21290;50.158;8.658;2023-08-30T01:54:28;13.20;99.90
35111;DHT22;21290;50.158;8.658;2023-08-30T01:56:56;13.20;99.90
35111;DHT22;21290;50.158;8.658;2023-08-30T01:59:24;13.20;99.90
35111;DHT22;21290;50.158;8.658;2023-08-30T02:01:51;13.20;99.90
35111;DHT22;21290;50.158;8.658;2023-08-30T02:04:18;13.20;99.90
35111;DHT22;21290;50.158;8.658;2023-08-30T02:07:07;13.20;99.90
35111;DHT22;21290;50.158;8.658;2023-08-30T02:12:15;13.10;99.90
35111;DHT22;21290;50.158;8.658;2023-08-30T02:14:45;13.10;99.90
35111;DHT22;21290;50.158;8.658;2023-08-30T02:17:17;13.10;99.90
35111;DHT22;21290;50.158;8.658;2023-08-30T02:19:44;13.10;99.90
35111;DHT22;21290;50.158;8.658;2023-08-30T02:22:12;13.10;99.90
35111;DHT22;21290;50.158;8.658;2023-08-30T02:24:39;13.10;99.90
35111;DHT22;21290;50.158;8.658;2023-08-30T02:27:05;13.10;99.90
35111;DHT22;21290;50.158;8.658;2023-08-30T02:29:32;13.10;99.90
35111;DHT22;21290;50.158;8.658;2023-08-30T02:31:59;13.10;99.90
35111;DHT22;21290;50.158;8.658;2023-08-30T02:34:26;13.10;99.90
35111;DHT22;21290;50.158;8.658;2023-08-30T02:36:53;13.10;99.90
35111;DHT22;21290;50.158;8.658;2023-08-30T02:39:20;13.10;99.90
35111;DHT22;21290;50.158;8.658;2023-08-30T02:41:47;13.10;99.90
35111;DHT22;21290;50.158;8.658;2023-08-30T02:44:13;13.10;99.90
35111;DHT22;21290;50.158;8.658;2023-08-30T02:46:40;13.20;99.90
35111;DHT22;21290;50.158;8.658;2023-08-30T02:49:08;13.20;99.90
35111;DHT22;21290;50.158;8.658;2023-08-30T02:51:35;13.20;99.90
35111;DHT22;21290;50.158;8.658;2023-08-30T02:54:02;13.20;99.90
35111;DHT22;21290;50.158;8.658;2023-08-30T02:56:29;13.20;99.90
35111;DHT22;21290;50.158;8.658;2023-08-30T02:58:56;13.20;99.90
35111;DHT22;21290;50.158;8.658;2023-08-30T03:01:23;13.20;99.90
35111;DHT22;21290;50.158;8.658;2023-08-30T03:03:50;13.20;99.90
35111;DHT22;21290;50.158;8.658;2023-08-30T03:06:17;13.30;99.90
35111;DHT22;21290;50.158;8.658;2023-08-30T03:08:43;13.20;99.90
35111;DHT22;21290;50.158;8.658;2023-08-30T03:11:11;13.30;99.90
35111;DHT22;21290;50.158;8.658;2023-08-30T03:13:39;13.30;99.90
35111;DHT22;21290;50.158;8.658;2023-08-30T03:16:13;13.30;99.90
35111;DHT22;21290;50.158;8.658;2023-08-30T03:18:41;13.40;99.90
35111;DHT22;21290;50.158;8.658;2023-08-30T03:21:08;13.30;99.90
35111;DHT22;21290;50.158;8.658;2023-08-30T03:23:35;13.40;99.90
35111;DHT22;21290;50.158;8.658;2023-08-30T03:26:09;13.40;99.90
35111;DHT22;21290;50.158;8.658;2023-08-30T03:28:37;13.40;99.90
35111;DHT22;21290;50.158;8.658;2023-08-30T03:31:18;13.40;99.90
35111;DHT22;21290;50.158;8.658;2023-08-30T03:33:45;13.30;99.90
35111;DHT22;21290;50.158;8.658;2023-08-30T03:36:14;13.40;99.90
35111;DHT22;21290;50.158;8.658;2023-08-30T03:38:41;13.40;99.90
35111;DHT22;21290;50.158;8.658;2023-08-30T03:41:10;13.30;99.90
35111;DHT22;21290;50.158;8.658;2023-08-30T03:43:37;13.40;99.90
35111;DHT22;21290;50.158;8.658;2023-08-30T03:46:04;13.40;99.90
35111;DHT22;21290;50.158;8.658;2023-08-30T03:48:32;13.30;99.90
35111;DHT22;21290;50.158;8.658;2023-08-30T03:50:59;13.30;99.90
35111;DHT22;21290;50.158;8.658;2023-08-30T03:53:26;13.30;99.90
35111;DHT22;21290;50.158;8.658;2023-08-30T03:55:53;13.30;99.90
35111;DHT22;21290;50.158;8.658;2023-08-30T03:58:20;13.30;99.90
35111;DHT22;21290;50.158;8.658;2023-08-30T04:00:47;13.30;99.90
35111;DHT22;21290;50.158;8.658;2023-08-30T04:03:15;13.30;99.90
35111;DHT22;21290;50.158;8.658;2023-08-30T04:05:42;13.40;99.90
35111;DHT22;21290;50.158;8.658;2023-08-30T04:08:09;13.40;99.90
35111;DHT22;21290;50.158;8.658;2023-08-30T04:10:38;13.30;99.90
35111;DHT22;21290;50.158;8.658;2023-08-30T04:13:07;13.30;99.90
35111;DHT22;21290;50.158;8.658;2023-08-30T04:15:35;13.30;99.90
35111;DHT22;21290;50.158;8.658;2023-08-30T04:18:03;13.30;99.90
35111;DHT22;21290;50.158;8.658;2023-08-30T04:20:31;13.30;99.90
35111;DHT22;21290;50.158;8.658;2023-08-30T04:23:02;13.30;99.90
35111;DHT22;21290;50.158;8.658;2023-08-30T04:25:29;13.30;99.90
35111;DHT22;21290;50.158;8.658;2023-08-30T04:27:57;13.30;99.90
35111;DHT22;21290;50.158;8.658;2023-08-30T04:30:24;13.30;99.90
35111;DHT22;21290;50.158;8.658;2023-08-30T04:32:51;13.30;99.90
35111;DHT22;21290;50.158;8.658;2023-08-30T04:35:18;13.30;99.90
35111;DHT22;21290;50.158;8.658;2023-08-30T04:37:45;13.30;99.90
35111;DHT22;21290;50.158;8.658;2023-08-30T04:40:12;13.30;99.90
35111;DHT22;21290;50.158;8.658;2023-08-30T04:42:39;13.30;99.90
35111;DHT22;21290;50.158;8.658;2023-08-30T04:45:09;13.30;99.90
35111;DHT22;21290;50.158;8.658;2023-08-30T04:47:37;13.20;99.90
35111;DHT22;21290;50.158;8.658;2023-08-30T04:50:05;13.20;99.90
35111;DHT22;21290;50.158;8.658;2023-08-30T04:52:32;13.20;99.90
35111;DHT22;21290;50.158;8.658;2023-08-30T04:54:59;13.20;99.90
35111;DHT22;21290;50.158;8.658;2023-08-30T04:57:26;13.10;99.90
35111;DHT22;21290;50.158;8.658;2023-08-30T04:59:54;13.20;99.90
35111;DHT22;21290;50.158;8.658;2023-08-30T05:02:21;13.20;99.90
35111;DHT22;21290;50.158;8.658;2023-08-30T05:04:48;13.10;99.90
35111;DHT22;21290;50.158;8.658;2023-08-30T05:07:15;13.20;99.90
35111;DHT22;21290;50.158;8.658;2023-08-30T05:09:42;13.10;99.90
35111;DHT22;21290;50.158;8.658;2023-08-30T05:12:09;13.20;99.90
35111;DHT22;21290;50.158;8.658;2023-08-30T05:14:36;13.20;99.90
35111;DHT22;21290;50.158;8.658;2023-08-30T05:17:03;13.30;99.90
35111;DHT22;21290;50.158;8.658;2023-08-30T05:19:30;13.30;99.90
35111;DHT22;21290;50.158;8.658;2023-08-30T05:21:58;13.40;99.90
35111;DHT22;21290;50.158;8.658;2023-08-30T05:24:24;13.40;99.90
35111;DHT22;21290;50.158;8.658;2023-08-30T05:26:53;13.50;99.90
35111;DHT22;21290;50.158;8.658;2023-08-30T05:29:20;13.60;99.90
35111;DHT22;21290;50.158;8.658;2023-08-30T05:31:47;13.70;99.90
35111;DHT22;21290;50.158;8.658;2023-08-30T05:34:14;13.80;99.90
35111;DHT22;21290;50.158;8.658;2023-08-30T05:36:40;13.90;99.90
35111;DHT22;21290;50.158;8.658;2023-08-30T05:39:07;14.00;99.90
35111;DHT22;21290;50.158;8.658;2023-08-30T05:41:34;14.00;99.90
35111;DHT22;21290;50.158;8.658;2023-08-30T05:44:01;14.10;99.90
35111;DHT22;21290;50.158;8.658;2023-08-30T05:46:29;14.20;99.90
35111;DHT22;21290;50.158;8.658;2023-08-30T05:48:56;14.30;99.90
35111;DHT22;21290;50.158;8.658;2023-08-30T05:51:22;14.30;99.90
35111;DHT22;21290;50.158;8.658;2023-08-30T05:53:49;14.40;99.90
35111;DHT22;21290;50.158;8.658;2023-08-30T05:56:16;14.50;99.90
35111;DHT22;21290;50.158;8.658;2023-08-30T05:58:44;14.50;99.90
35111;DHT22;21290;50.158;8.658;2023-08-30T06:01:11;14.60;99.90
35111;DHT22;21290;50.158;8.658;2023-08-30T06:03:43;14.60;99.90
35111;DHT22;21290;50.158;8.658;2023-08-30T06:06:13;14.60;99.90
35111;DHT22;21290;50.158;8.658;2023-08-30T06:08:40;14.70;99.90
35111;DHT22;21290;50.158;8.658;2023-08-30T06:11:06;14.80;99.90
35111;DHT22;21290;50.158;8.658;2023-08-30T06:13:34;14.80;99.90
35111;DHT22;21290;50.158;8.658;2023-08-30T06:16:03;14.80;99.90
35111;DHT22;21290;50.158;8.658;2023-08-30T06:18:31;15.00;99.90
35111;DHT22;21290;50.158;8.658;2023-08-30T06:21:00;15.10;99.90
35111;DHT22;21290;50.158;8.658;2023-08-30T06:23:27;15.20;99.90
35111;DHT22;21290;50.158;8.658;2023-08-30T06:25:56;15.30;99.90
35111;DHT22;21290;50.158;8.658;2023-08-30T06:28:23;15.50;99.90
35111;DHT22;21290;50.158;8.658;2023-08-30T06:30:50;15.70;99.90
35111;DHT22;21290;50.158;8.658;2023-08-30T06:33:17;15.80;99.90
35111;DHT22;21290;50.158;8.658;2023-08-30T06:35:47;16.00;99.90
35111;DHT22;21290;50.158;8.658;2023-08-30T06:38:13;16.00;99.90
35111;DHT22;21290;50.158;8.658;2023-08-30T06:40:45;16.20;99.90
35111;DHT22;21290;50.158;8.658;2023-08-30T06:43:12;16.20;99.90
35111;DHT22;21290;50.158;8.658;2023-08-30T06:45:39;16.10;99.90
35111;DHT22;21290;50.158;8.658;2023-08-30T06:48:06;16.20;99.90
35111;DHT22;21290;50.158;8.658;2023-08-30T06:50:35;16.30;99.90
35111;DHT22;21290;50.158;8.658;2023-08-30T06:53:02;16.30;99.90
35111;DHT22;21290;50.158;8.658;2023-08-30T06:55:29;16.40;99.90
35111;DHT22;21290;50.158;8.658;2023-08-30T06:57:56;16.50;99.90
35111;DHT22;21290;50.158;8.658;2023-08-30T07:00:23;16.60;99.90
35111;DHT22;21290;50.158;8.658;2023-08-30T07:02:52;16.70;99.90
35111;DHT22;21290;50.158;8.658;2023-08-30T07:06:02;16.80;99.90
35111;DHT22;21290;50.158;8.658;2023-08-30T07:08:33;17.00;99.90
35111;DHT22;21290;50.158;8.658;2023-08-30T07:11:43;17.10;99.90
35111;DHT22;21290;50.158;8.658;2023-08-30T07:14:53;17.30;99.90
35111;DHT22;21290;50.158;8.658;2023-08-30T07:21:38;17.20;99.90
35111;DHT22;21290;50.158;8.658;2023-08-30T07:31:37;17.30;99.90
35111;DHT22;21290;50.158;8.658;2023-08-30T07:34:04;17.20;99.90
35111;DHT22;21290;50.158;8.658;2023-08-30T07:36:40;17.30;99.90
35111;DHT22;21290;50.158;8.658;2023-08-30T07:39:13;17.10;99.90
35111;DHT22;21290;50.158;8.658;2023-08-30T07:41:40;17.10;99.90
35111;DHT22;21290;50.158;8.658;2023-08-30T07:44:07;17.00;99.90
35111;DHT22;21290;50.158;8.658;2023-08-30T07:46:34;16.90;99.90
35111;DHT22;21290;50.158;8.658;2023-08-30T07:49:01;16.90;99.90
35111;DHT22;21290;50.158;8.658;2023-08-30T07:51:28;17.00;99.90
35111;DHT22;21290;50.158;8.658;2023-08-30T07:53:55;17.10;99.90
35111;DHT22;21290;50.158;8.658;2023-08-30T07:56:22;17.40;99.90
35111;DHT22;21290;50.158;8.658;2023-08-30T07:58:48;17.60;99.90
35111;DHT22;21290;50.158;8.658;2023-08-30T08:01:15;17.90;99.90
35111;DHT22;21290;50.158;8.658;2023-08-30T08:03:43;18.00;99.90
35111;DHT22;21290;50.158;8.658;2023-08-30T08:06:32;18.20;99.90
35111;DHT22;21290;50.158;8.658;2023-08-30T08:09:04;18.30;99.90
35111;DHT22;21290;50.158;8.658;2023-08-30T08:11:31;18.50;99.90
35111;DHT22;21290;50.158;8.658;2023-08-30T08:14:00;18.70;99.90
35111;DHT22;21290;50.158;8.658;2023-08-30T08:16:28;19.00;99.90
35111;DHT22;21290;50.158;8.658;2023-08-30T08:18:55;19.40;99.90
35111;DHT22;21290;50.158;8.658;2023-08-30T08:25:18;19.90;99.90
35111;DHT22;21290;50.158;8.658;2023-08-30T08:28:00;20.00;99.90
35111;DHT22;21290;50.158;8.658;2023-08-30T08:30:41;19.90;99.90
35111;DHT22;21290;50.158;8.658;2023-08-30T08:33:10;19.90;99.90
35111;DHT22;21290;50.158;8.658;2023-08-30T08:35:55;20.10;99.90
35111;DHT22;21290;50.158;8.658;2023-08-30T08:38:26;20.10;99.90
35111;DHT22;21290;50.158;8.658;2023-08-30T08:41:05;20.40;99.90
35111;DHT22;21290;50.158;8.658;2023-08-30T08:43:55;20.90;99.90
35111;DHT22;21290;50.158;8.658;2023-08-30T08:46:23;21.40;99.90
35111;DHT22;21290;50.158;8.658;2023-08-30T08:48:52;21.80;99.90
35111;DHT22;21290;50.158;8.658;2023-08-30T08:51:21;21.70;99.90
35111;DHT22;21290;50.158;8.658;2023-08-30T08:53:50;21.40;99.90
35111;DHT22;21290;50.158;8.658;2023-08-30T08:56:17;21.40;99.90
35111;DHT22;21290;50.158;8.658;2023-08-30T08:58:45;21.80;99.90
35111;DHT22;21290;50.158;8.658;2023-08-30T09:01:13;22.30;99.90
35111;DHT22;21290;50.158;8.658;2023-08-30T09:07:40;23.10;99.90
35111;DHT22;21290;50.158;8.658;2023-08-30T09:11:35;23.80;99.90
35111;DHT22;21290;50.158;8.658;2023-08-30T09:14:17;24.60;99.90
35111;DHT22;21290;50.158;8.658;2023-08-30T09:17:01;25.20;99.90
35111;DHT22;21290;50.158;8.658;2023-08-30T09:19:29;25.50;99.90
35111;DHT22;21290;50.158;8.658;2023-08-30T09:21:59;25.80;99.30
35111;DHT22;21290;50.158;8.658;2023-08-30T09:24:36;25.80;99.00
35111;DHT22;21290;50.158;8.658;2023-08-30T09:27:03;26.30;99.00
35111;DHT22;21290;50.158;8.658;2023-08-30T09:29:30;26.70;98.00
35111;DHT22;21290;50.158;8.658;2023-08-30T09:31:57;26.80;97.40
35111;DHT22;21290;50.158;8.658;2023-08-30T09:34:27;26.90;97.10
35111;DHT22;21290;50.158;8.658;2023-08-30T09:36:54;27.10;96.70
35111;DHT22;21290;50.158;8.658;2023-08-30T09:39:22;27.60;96.00
35111;DHT22;21290;50.158;8.658;2023-08-30T09:41:49;27.80;95.50
35111;DHT22;21290;50.158;8.658;2023-08-30T09:44:18;28.00;94.80
35111;DHT22;21290;50.158;8.658;2023-08-30T09:46:52;28.10;94.20
35111;DHT22;21290;50.158;8.658;2023-08-30T09:49:22;28.30;93.90
35111;DHT22;21290;50.158;8.658;2023-08-30T09:51:50;28.70;93.70
35111;DHT22;21290;50.158;8.658;2023-08-30T09:54:20;28.50;93.40
35111;DHT22;21290;50.158;8.658;2023-08-30T09:56:50;28.30;93.70
35111;DHT22;21290;50.158;8.658;2023-08-30T09:59:22;29.10;93.10
35111;DHT22;21290;50.158;8.658;2023-08-30T10:01:50;29.30;92.10
35111;DHT22;21290;50.158;8.658;2023-08-30T10:04:19;29.30;91.40
35111;DHT22;21290;50.158;8.658;2023-08-30T10:06:47;28.70;92.20
35111;DHT22;21290;50.158;8.658;2023-08-30T10:09:15;28.90;91.50
35111;DHT22;21290;50.158;8.658;2023-08-30T10:11:45;29.10;91.70
35111;DHT22;21290;50.158;8.658;2023-08-30T10:14:13;29.00;91.50
35111;DHT22;21290;50.158;8.658;2023-08-30T10:16:48;29.50;91.00
35111;DHT22;21290;50.158;8.658;2023-08-30T10:19:27;29.40;90.60
35111;DHT22;21290;50.158;8.658;2023-08-30T10:22:00;29.00;90.40
35111;DHT22;21290;50.158;8.658;2023-08-30T10:24:28;29.20;90.20
35111;DHT22;21290;50.158;8.658;2023-08-30T10:27:08;28.90;90.40
35111;DHT22;21290;50.158;8.658;2023-08-30T10:29:48;28.90;90.40
35111;DHT22;21290;50.158;8.658;2023-08-30T10:32:19;27.80;91.30
35111;DHT22;21290;50.158;8.658;2023-08-30T10:34:49;26.90;92.40
35111;DHT22;21290;50.158;8.658;2023-08-30T10:37:22;27.10;92.20
35111;DHT22;21290;50.158;8.658;2023-08-30T10:39:50;27.20;92.20
35111;DHT22;21290;50.158;8.658;2023-08-30T10:42:22;28.30;91.80
35111;DHT22;21290;50.158;8.658;2023-08-30T10:44:56;29.00;89.00
35111;DHT22;21290;50.158;8.658;2023-08-30T10:47:49;29.90;87.10
35111;DHT22;21290;50.158;8.658;2023-08-30T10:50:31;30.70;86.20
35111;DHT22;21290;50.158;8.658;2023-08-30T10:52:59;31.00;84.00
35111;DHT22;21290;50.158;8.658;2023-08-30T10:55:28;31.80;82.80
35111;DHT22;21290;50.158;8.658;2023-08-30T10:58:14;30.90;82.60
35111;DHT22;21290;50.158;8.658;2023-08-30T11:00:41;30.30;82.80
35111;DHT22;21290;50.158;8.658;2023-08-30T11:03:10;30.10;82.00
35111;DHT22;21290;50.158;8.658;2023-08-30T11:05:40;30.40;82.90
35111;DHT22;21290;50.158;8.658;2023-08-30T11:08:10;31.20;80.50
35111;DHT22;21290;50.158;8.658;2023-08-30T11:10:41;31.80;78.00
35111;DHT22;21290;50.158;8.658;2023-08-30T11:13:09;30.50;78.30
35111;DHT22;21290;50.158;8.658;2023-08-30T11:15:38;29.30;80.90
35111;DHT22;21290;50.158;8.658;2023-08-30T11:18:09;28.80;82.60
35111;DHT22;21290;50.158;8.658;2023-08-30T11:20:36;28.50;83.30
35111;DHT22;21290;50.158;8.658;2023-08-30T11:23:03;28.70;82.40
35111;DHT22;21290;50.158;8.658;2023-08-30T11:25:30;29.00;81.10
35111;DHT22;21290;50.158;8.658;2023-08-30T11:28:03;29.50;79.30
35111;DHT22;21290;50.158;8.658;2023-08-30T11:30:30;30.10;78.90
35111;DHT22;21290;50.158;8.658;2023-08-30T11:32:57;29.60;79.30
35111;DHT22;21290;50.158;8.658;2023-08-30T11:35:24;29.00;80.40
35111;DHT22;21290;50.158;8.658;2023-08-30T11:37:51;28.60;81.80
35111;DHT22;21290;50.158;8.658;2023-08-30T11:40:18;29.10;81.50
35111;DHT22;21290;50.158;8.658;2023-08-30T11:42:57;29.50;79.20
35111;DHT22;21290;50.158;8.658;2023-08-30T11:45:24;29.70;80.40
35111;DHT22;21290;50.158;8.658;2023-08-30T11:47:51;29.90;79.60
35111;DHT22;21290;50.158;8.658;2023-08-30T11:50:19;29.60;80.60
35111;DHT22;21290;50.158;8.658;2023-08-30T11:52:58;29.90;79.40
35111;DHT22;21290;50.158;8.658;2023-08-30T11:55:29;29.30;79.90
35111;DHT22;21290;50.158;8.658;2023-08-30T11:58:14;28.90;81.00
35111;DHT22;21290;50.158;8.658;2023-08-30T12:01:04;28.10;81.50
35111;DHT22;21290;50.158;8.658;2023-08-30T12:03:42;27.30;82.20
35111;DHT22;21290;50.158;8.658;2023-08-30T12:06:12;26.70;83.70
35111;DHT22;21290;50.158;8.658;2023-08-30T12:08:39;26.00;85.50
35111;DHT22;21290;50.158;8.658;2023-08-30T12:11:19;25.60;87.10
35111;DHT22;21290;50.158;8.658;2023-08-30T12:13:47;25.40;88.40
35111;DHT22;21290;50.158;8.658;2023-08-30T12:16:18;25.20;88.90
35111;DHT22;21290;50.158;8.658;2023-08-30T12:19:13;25.40;89.80
35111;DHT22;21290;50.158;8.658;2023-08-30T12:21:44;25.40;89.60
35111;DHT22;21290;50.158;8.658;2023-08-30T12:24:24;25.50;88.20
35111;DHT22;21290;50.158;8.658;2023-08-30T12:26:51;25.10;89.30
35111;DHT22;21290;50.158;8.658;2023-08-30T12:29:23;25.10;88.30
35111;DHT22;21290;50.158;8.658;2023-08-30T12:31:50;24.80;88.10
35111;DHT22;21290;50.158;8.658;2023-08-30T12:34:17;24.30;88.60
35111;DHT22;21290;50.158;8.658;2023-08-30T12:36:44;24.00;88.80
35111;DHT22;21290;50.158;8.658;2023-08-30T12:39:11;24.10;87.50
35111;DHT22;21290;50.158;8.658;2023-08-30T12:41:38;24.20;83.90
35111;DHT22;21290;50.158;8.658;2023-08-30T12:44:05;24.30;82.90
35111;DHT22;21290;50.158;8.658;2023-08-30T12:46:32;24.20;82.80
35111;DHT22;21290;50.158;8.658;2023-08-30T12:48:59;23.90;82.20
35111;DHT22;21290;50.158;8.658;2023-08-30T12:51:46;23.60;83.50
35111;DHT22;21290;50.158;8.658;2023-08-30T12:54:41;23.30;84.50
35111;DHT22;21290;50.158;8.658;2023-08-30T12:57:17;23.50;84.80
35111;DHT22;21290;50.158;8.658;2023-08-30T13:00:20;23.60;83.50
35111;DHT22;21290;50.158;8.658;2023-08-30T13:02:47;23.30;82.70
35111;DHT22;21290;50.158;8.658;2023-08-30T13:05:14;23.20;84.20
35111;DHT22;21290;50.158;8.658;2023-08-30T13:07:40;23.20;83.70
35111;DHT22;21290;50.158;8.658;2023-08-30T13:10:32;23.30;84.40
35111;DHT22;21290;50.158;8.658;2023-08-30T13:13:04;23.30;84.90
35111;DHT22;21290;50.158;8.658;2023-08-30T13:16:16;23.40;84.70
35111;DHT22;21290;50.158;8.658;2023-08-30T13:18:43;23.40;84.80
35111;DHT22;21290;50.158;8.658;2023-08-30T13:21:13;23.20;86.00
35111;DHT22;21290;50.158;8.658;2023-08-30T13:23:41;23.30;83.90
35111;DHT22;21290;50.158;8.658;2023-08-30T13:29:42;23.30;85.20
35111;DHT22;21290;50.158;8.658;2023-08-30T13:36:28;23.60;85.10
35111;DHT22;21290;50.158;8.658;2023-08-30T13:39:32;23.60;84.90
35111;DHT22;21290;50.158;8.658;2023-08-30T13:42:02;23.60;85.10
35111;DHT22;21290;50.158;8.658;2023-08-30T13:44:29;23.60;86.30
35111;DHT22;21290;50.158;8.658;2023-08-30T13:50:20;23.30;86.80
35111;DHT22;21290;50.158;8.658;2023-08-30T13:52:47;23.30;88.20
35111;DHT22;21290;50.158;8.658;2023-08-30T13:55:14;23.00;87.70
35111;DHT22;21290;50.158;8.658;2023-08-30T13:57:40;22.90;88.10
35111;DHT22;21290;50.158;8.658;2023-08-30T14:00:08;22.70;87.70
35111;DHT22;21290;50.158;8.658;2023-08-30T14:02:36;22.50;88.30
35111;DHT22;21290;50.158;8.658;2023-08-30T14:05:07;22.40;88.30
35111;DHT22;21290;50.158;8.658;2023-08-30T14:07:39;22.40;89.20
35111;DHT22;21290;50.158;8.658;2023-08-30T14:10:07;22.40;89.00
35111;DHT22;21290;50.158;8.658;2023-08-30T14:12:36;22.50;89.00
35111;DHT22;21290;50.158;8.658;2023-08-30T14:15:21;22.60;89.00
35111;DHT22;21290;50.158;8.658;2023-08-30T14:18:30;22.70;88.60
35111;DHT22;21290;50.158;8.658;2023-08-30T14:25:08;22.60;88.50
35111;DHT22;21290;50.158;8.658;2023-08-30T14:27:38;22.50;88.60
35111;DHT22;21290;50.158;8.658;2023-08-30T14:30:06;22.60;88.60
35111;DHT22;21290;50.158;8.658;2023-08-30T14:32:33;22.50;89.00
35111;DHT22;21290;50.158;8.658;2023-08-30T14:35:00;22.70;88.90
35111;DHT22;21290;50.158;8.658;2023-08-30T14:37:26;22.70;88.40
35111;DHT22;21290;50.158;8.658;2023-08-30T14:39:54;22.70;88.40
35111;DHT22;21290;50.158;8.658;2023-08-30T14:42:26;22.80;88.30
35111;DHT22;21290;50.158;8.658;2023-08-30T14:45:13;22.70;88.40
35111;DHT22;21290;50.158;8.658;2023-08-30T14:47:40;22.80;87.90
35111;DHT22;21290;50.158;8.658;2023-08-30T14:50:07;22.80;87.80
35111;DHT22;21290;50.158;8.658;2023-08-30T14:55:57;22.70;88.80
35111;DHT22;21290;50.158;8.658;2023-08-30T14:58:24;22.40;89.20
35111;DHT22;21290;50.158;8.658;2023-08-30T15:00:51;22.40;90.30
35111;DHT22;21290;50.158;8.658;2023-08-30T15:03:19;22.30;90.50
35111;DHT22;21290;50.158;8.658;2023-08-30T15:06:25;22.10;90.90
35111;DHT22;21290;50.158;8.658;2023-08-30T15:16:39;22.00;90.70
35111;DHT22;21290;50.158;8.658;2023-08-30T15:19:51;21.90;90.60
35111;DHT22;21290;50.158;8.658;2023-08-30T15:27:14;21.70;91.40
35111;DHT22;21290;50.158;8.658;2023-08-30T15:30:42;21.70;91.40
35111;DHT22;21290;50.158;8.658;2023-08-30T15:33:43;21.80;91.50
35111;DHT22;21290;50.158;8.658;2023-08-30T15:40:18;21.40;92.00
35111;DHT22;21290;50.158;8.658;2023-08-30T15:43:56;21.40;92.40
35111;DHT22;21290;50.158;8.658;2023-08-30T15:50:24;21.40;92.50
35111;DHT22;21290;50.158;8.658;2023-08-30T15:52:54;21.30;92.70
35111;DHT22;21290;50.158;8.658;2023-08-30T15:55:30;21.20;92.70
35111;DHT22;21290;50.158;8.658;2023-08-30T16:01:42;21.10;93.20
35111;DHT22;21290;50.158;8.658;2023-08-30T16:04:36;21.10;93.60
35111;DHT22;21290;50.158;8.658;2023-08-30T16:11:36;20.90;93.60
35111;DHT22;21290;50.158;8.658;2023-08-30T16:14:03;20.90;93.10
35111;DHT22;21290;50.158;8.658;2023-08-30T16:16:30;20.80;92.70
35111;DHT22;21290;50.158;8.658;2023-08-30T16:18:57;20.80;92.70
35111;DHT22;21290;50.158;8.658;2023-08-30T16:21:24;20.70;92.90
35111;DHT22;21290;50.158;8.658;2023-08-30T16:23:51;20.60;93.10
35111;DHT22;21290;50.158;8.658;2023-08-30T16:26:21;20.60;93.30
35111;DHT22;21290;50.158;8.658;2023-08-30T16:28:51;20.60;93.50
35111;DHT22;21290;50.158;8.658;2023-08-30T16:31:18;20.50;93.60
35111;DHT22;21290;50.158;8.658;2023-08-30T16:33:49;20.50;93.70
35111;DHT22;21290;50.158;8.658;2023-08-30T16:36:16;20.60;93.80
35111;DHT22;21290;50.158;8.658;2023-08-30T16:38:43;20.60;94.10
35111;DHT22;21290;50.158;8.658;2023-08-30T16:41:09;20.60;94.50
35111;DHT22;21290;50.158;8.658;2023-08-30T16:43:36;20.50;94.20
35111;DHT22;21290;50.158;8.658;2023-08-30T16:46:03;20.50;94.40
35111;DHT22;21290;50.158;8.658;2023-08-30T16:48:29;20.50;94.40
35111;DHT22;21290;50.158;8.658;2023-08-30T16:50:57;20.40;94.40
35111;DHT22;21290;50.158;8.658;2023-08-30T16:53:24;20.40;94.60
35111;DHT22;21290;50.158;8.658;2023-08-30T16:55:51;20.40;94.90
35111;DHT22;21290;50.158;8.658;2023-08-30T16:58:18;20.30;94.80
35111;DHT22;21290;50.158;8.658;2023-08-30T17:00:44;20.30;94.90
35111;DHT22;21290;50.158;8.658;2023-08-30T17:03:11;20.20;95.30
35111;DHT22;21290;50.158;8.658;2023-08-30T17:05:38;20.10;95.60